EEKA

Details ICAO EEKA (KDL)
Name KARDLA
Region Estonia
Timezone Europe/Tallinn (UTC+2.0)
Plans Departing 9
Arriving 9
Stats Elevation 18 ft / 5 m (AMSL)
Location 58.990789° 22.830869°
Runways 1
Magnetic Variation 7.794° E
Sunrise 2017-12-12 07:14:41 UTC / 2017-12-12 09:14:41 Local
Sunset 2017-12-12 13:32:56 UTC / 2017-12-12 15:32:56 Local
Advertisement - Login to hide

Runways

ID Width Length Bearing (true) Bearing (mag) Surface Threshold Offset Overrun Length
14 98 ft / 30 m 4,977 ft / 1,517 m 147.42° 139.63° Asphalt 0 ft / 0 m 197 ft / 60 m
32 98 ft / 30 m 4,977 ft / 1,517 m 327.43° 319.64° Asphalt 788 ft / 240 m 262 ft / 80 m

Map

Weather


0- 5 10 15 20 25 30 35+ Temperature / ° C

Clouds and Precipitation
Forecast for 2017-12-12 12:00 UTC. Updated an hour ago

Ground ~20,000 ft ~40,000 ft Winds

METAR

EEKA 121150Z 16009KT 6000 RA BKN005 OVC013 03/03 Q0985

TAF

Not found

Frequencies

Tower 130.30 MHz AFIS
Tower 130.30 MHz TWR
Warning: Do not use this data for real-world aviation or navigation. No guarantee of current accuracy is given.